Time;durP1;ratioP1;P1;durP2;ratioP2;P2;SDS_P1;SDS_P2;PMS_P1;PMS_P2;Temp;Humidity;BMP_temperature;BMP_pressure;BME280_temperature;BME280_humidity;BME280_pressure;Samples;Min_cycle;Max_cycle;Signal;HPM_P1;HPM_P2
2023/01/14 00:01:32;;;;;;;24.48;5.40;;;;;;;4.98;100.00;101336.31;5055429;28;20036;-80
2023/01/14 00:03:57;;;;;;;26.25;5.93;;;;;;;4.91;100.00;101337.88;5055350;28;20025;-85
2023/01/14 00:06:26;;;;;;;26.58;5.70;;;;;;;4.92;100.00;101343.97;5051231;28;20591;-73
2023/01/14 00:08:56;;;;;;;26.60;5.20;;;;;;;4.88;100.00;101346.50;5055225;28;20016;-86
2023/01/14 00:11:45;;;;;;;24.17;5.32;;;;;;;4.90;100.00;101357.03;5055176;28;20130;-86
2023/01/14 00:14:09;;;;;;;25.52;4.68;;;;;;;4.95;100.00;101355.47;5052943;28;20041;-73
2023/01/14 00:16:34;;;;;;;28.27;6.07;;;;;;;4.88;100.00;101351.72;5055362;28;20037;-86
2023/01/14 00:19:00;;;;;;;23.55;5.18;;;;;;;4.86;100.00;101353.44;5054915;28;20032;-78
2023/01/14 00:21:25;;;;;;;23.23;4.75;;;;;;;4.80;100.00;101350.56;5055068;28;20033;-74
2023/01/14 00:23:54;;;;;;;25.00;4.90;;;;;;;4.88;100.00;101351.72;5055108;28;20022;-86
2023/01/14 00:26:20;;;;;;;23.95;5.28;;;;;;;4.93;100.00;101353.63;5054864;28;20032;-85
2023/01/14 00:28:46;;;;;;;24.95;5.25;;;;;;;4.87;100.00;101351.69;5054771;28;20024;-85
2023/01/14 00:31:18;;;;;;;27.13;5.22;;;;;;;4.79;100.00;101343.56;5055042;28;20032;-78
2023/01/14 00:33:45;;;;;;;28.53;5.40;;;;;;;4.76;100.00;101338.22;5055001;28;20068;-73
2023/01/14 00:36:13;;;;;;;26.52;5.55;;;;;;;4.73;100.00;101338.06;5054709;28;20112;-75
2023/01/14 00:38:39;;;;;;;24.35;5.18;;;;;;;4.76;100.00;101343.44;5054422;28;20033;-73
2023/01/14 00:41:06;;;;;;;27.00;5.57;;;;;;;4.77;100.00;101341.72;5054885;28;20091;-73
2023/01/14 00:43:33;;;;;;;27.25;5.60;;;;;;;4.65;100.00;101339.53;5054627;28;20113;-78
2023/01/14 00:45:58;;;;;;;28.17;6.25;;;;;;;4.62;100.00;101345.56;5054740;28;20032;-73
2023/01/14 00:48:24;;;;;;;27.05;6.03;;;;;;;4.64;100.00;101353.47;5055063;28;20507;-73
2023/01/14 00:50:49;;;;;;;27.27;5.70;;;;;;;4.67;100.00;101353.56;5054357;28;20138;-73
2023/01/14 00:53:14;;;;;;;28.17;6.07;;;;;;;4.64;100.00;101348.22;5054605;28;20037;-74
2023/01/14 00:55:40;;;;;;;30.08;6.20;;;;;;;4.69;100.00;101351.94;5054409;28;20047;-78
2023/01/14 00:58:05;;;;;;;28.10;5.90;;;;;;;4.71;100.00;101351.13;5054262;28;20036;-73
2023/01/14 01:00:31;;;;;;;27.13;6.05;;;;;;;4.85;100.00;101346.41;5054729;28;20103;-73
2023/01/14 01:02:57;;;;;;;29.35;6.45;;;;;;;4.82;100.00;101353.22;5054295;28;20029;-73
2023/01/14 01:05:23;;;;;;;27.88;5.93;;;;;;;4.78;100.00;101354.88;5054023;28;20028;-73
2023/01/14 01:07:48;;;;;;;29.00;6.07;;;;;;;4.78;100.00;101353.97;5054372;28;20045;-73
2023/01/14 01:10:14;;;;;;;29.10;6.30;;;;;;;4.71;100.00;101356.34;5054106;28;20063;-73
2023/01/14 01:12:39;;;;;;;31.05;6.60;;;;;;;4.71;100.00;101352.84;5054069;28;20033;-73
2023/01/14 01:15:05;;;;;;;28.17;5.80;;;;;;;4.72;100.00;101346.78;5054278;28;20029;-79
2023/01/14 01:17:30;;;;;;;29.77;6.05;;;;;;;4.72;100.00;101357.28;5053883;28;20024;-76
2023/01/14 01:19:55;;;;;;;30.50;6.07;;;;;;;4.70;100.00;101353.69;5053955;28;20158;-83
2023/01/14 01:22:21;;;;;;;30.80;6.40;;;;;;;4.69;100.00;101354.53;5054002;28;20049;-73
2023/01/14 01:24:46;;;;;;;29.20;6.43;;;;;;;4.63;100.00;101349.06;5053840;28;20460;-78
2023/01/14 01:27:12;;;;;;;32.35;7.00;;;;;;;4.63;100.00;101356.91;5036215;28;20492;-74
2023/01/14 01:29:38;;;;;;;31.35;6.38;;;;;;;4.62;100.00;101360.38;5053694;28;20078;-85
2023/01/14 01:32:03;;;;;;;30.33;6.45;;;;;;;4.60;100.00;101357.72;5053710;28;20045;-86
2023/01/14 01:34:28;;;;;;;30.92;6.45;;;;;;;4.61;100.00;101359.47;5054098;28;20032;-83
2023/01/14 01:36:54;;;;;;;29.20;6.00;;;;;;;4.54;100.00;101358.38;5053548;28;20033;-84
2023/01/14 01:39:19;;;;;;;30.35;6.05;;;;;;;4.53;100.00;101360.94;5053682;28;20039;-86
2023/01/14 01:41:44;;;;;;;31.90;6.40;;;;;;;4.60;100.00;101347.25;5053606;28;20036;-78
2023/01/14 01:44:13;;;;;;;28.25;5.80;;;;;;;4.65;100.00;101356.13;5053446;28;20498;-79
2023/01/14 01:46:40;;;;;;;30.35;6.72;;;;;;;4.60;100.00;101348.94;5053640;28;20112;-74
2023/01/14 01:49:25;;;;;;;32.17;6.55;;;;;;;4.57;100.00;101351.47;5053531;28;20503;-81
2023/01/14 01:52:06;;;;;;;31.80;6.43;;;;;;;4.51;100.00;101355.66;5053372;28;20079;-73
2023/01/14 01:54:36;;;;;;;30.63;6.90;;;;;;;4.44;100.00;101350.09;5050495;28;20025;-73
2023/01/14 01:57:03;;;;;;;33.63;6.72;;;;;;;4.49;100.00;101356.41;5053204;28;20476;-73
2023/01/14 01:59:33;;;;;;;34.38;7.25;;;;;;;4.44;100.00;101361.50;5053038;28;20545;-73
2023/01/14 02:01:59;;;;;;;34.97;6.70;;;;;;;4.48;100.00;101358.13;5049799;28;20108;-73
2023/01/14 02:04:24;;;;;;;35.80;7.20;;;;;;;4.51;100.00;101347.78;5049010;28;20128;-73
2023/01/14 02:06:50;;;;;;;31.27;6.72;;;;;;;4.48;100.00;101337.19;5052822;28;20045;-73
2023/01/14 02:09:17;;;;;;;34.92;6.90;;;;;;;4.47;100.00;101334.50;5035213;28;20384;-73
2023/01/14 02:12:13;;;;;;;30.52;6.50;;;;;;;4.43;100.00;101337.88;5052523;28;20029;-78
2023/01/14 02:14:54;;;;;;;35.90;7.15;;;;;;;4.40;100.00;101322.03;5050874;28;20391;-73
2023/01/14 02:17:36;;;;;;;30.80;6.60;;;;;;;4.35;100.00;101325.38;5052983;28;20033;-73
2023/01/14 02:20:18;;;;;;;32.80;7.03;;;;;;;4.34;100.00;101312.25;5049694;28;20078;-73
2023/01/14 02:23:04;;;;;;;34.07;6.80;;;;;;;4.34;100.00;101296.53;5052851;28;20055;-73
2023/01/14 02:26:01;;;;;;;31.63;6.30;;;;;;;4.34;100.00;101286.06;5049352;28;20078;-73
2023/01/14 02:28:47;;;;;;;33.10;6.70;;;;;;;4.32;100.00;101282.47;5048988;28;20047;-73
2023/01/14 02:31:19;;;;;;;31.85;6.18;;;;;;;4.26;100.00;101280.53;5051235;28;20037;-78
2023/01/14 02:34:11;;;;;;;32.55;7.25;;;;;;;4.24;100.00;101278.69;5052640;28;20391;-73
2023/01/14 02:36:52;;;;;;;31.25;6.00;;;;;;;4.19;100.00;101273.28;5032418;28;20024;-73
2023/01/14 02:39:25;;;;;;;33.00;6.60;;;;;;;4.12;100.00;101251.25;5052492;28;20032;-73
2023/01/14 02:44:48;;;;;;;34.13;6.40;;;;;;;4.12;100.00;101251.25;5050879;28;20098;-74
2023/01/14 02:47:20;;;;;;;32.13;6.63;;;;;;;4.12;100.00;101248.63;5052446;28;20052;-77
2023/01/14 02:49:50;;;;;;;34.83;7.15;;;;;;;4.07;100.00;101250.16;5052326;28;20029;-73
2023/01/14 02:52:17;;;;;;;33.75;7.22;;;;;;;4.07;100.00;101244.06;5034656;28;20035;-73
2023/01/14 02:54:57;;;;;;;35.92;6.78;;;;;;;4.13;100.00;101242.53;5052420;28;20025;-78
2023/01/14 02:58:04;;;;;;;33.65;5.97;;;;;;;4.20;100.00;101233.19;5052289;28;20411;-73
2023/01/14 03:00:45;;;;;;;34.05;6.65;;;;;;;4.24;100.00;101239.41;5051638;28;20484;-73
2023/01/14 03:03:42;;;;;;;29.55;6.78;;;;;;;4.27;100.00;101242.19;5052462;28;20074;-78
2023/01/14 03:06:24;;;;;;;30.92;6.20;;;;;;;4.27;100.00;101244.78;5050058;28;20060;-73
2023/01/14 03:09:12;;;;;;;32.70;6.35;;;;;;;4.29;100.00;101237.88;5052485;28;20028;-73
2023/01/14 03:11:49;;;;;;;29.25;5.70;;;;;;;4.26;100.00;101241.25;5049057;28;20506;-73
2023/01/14 03:14:25;;;;;;;33.60;6.60;;;;;;;4.24;100.00;101235.09;5052310;28;20025;-73
2023/01/14 03:16:56;;;;;;;30.00;5.78;;;;;;;4.25;100.00;101222.88;5052105;28;20607;-73
2023/01/14 03:19:29;;;;;;;30.08;6.15;;;;;;;4.25;100.00;101213.34;5052028;28;20029;-73
2023/01/14 03:21:57;;;;;;;33.85;6.38;;;;;;;4.25;100.00;101199.34;5052283;28;20045;-73
2023/01/14 03:24:26;;;;;;;30.85;5.85;;;;;;;4.25;100.00;101201.94;5056272;28;20098;-73
2023/01/14 03:26:54;;;;;;;31.02;6.07;;;;;;;4.27;100.00;101200.31;5056192;28;20420;-75
2023/01/14 03:29:29;;;;;;;31.20;6.25;;;;;;;4.31;100.00;101203.06;5055983;28;20025;-73
2023/01/14 03:32:04;;;;;;;29.98;6.20;;;;;;;4.31;100.00;101196.94;5055923;28;20033;-73
2023/01/14 03:34:36;;;;;;;30.55;6.10;;;;;;;4.34;100.00;101197.94;5052672;28;20116;-73
2023/01/14 03:37:04;;;;;;;30.50;6.10;;;;;;;4.38;100.00;101188.47;5052509;28;20060;-74
2023/01/14 03:39:31;;;;;;;28.92;5.60;;;;;;;4.42;100.00;101197.31;5055977;28;20379;-73
2023/01/14 03:42:18;;;;;;;29.65;5.40;;;;;;;4.47;100.00;101187.88;5052076;28;20033;-73
2023/01/14 03:45:16;;;;;;;29.52;6.00;;;;;;;4.64;100.00;101189.34;5054139;28;20495;-73
2023/01/14 03:47:44;;;;;;;34.70;6.10;;;;;;;4.63;100.00;101200.69;5038859;28;20119;-73
2023/01/14 03:50:16;;;;;;;27.88;5.60;;;;;;;4.64;100.00;101193.72;5055802;28;20037;-75
2023/01/14 03:53:09;;;;;;;29.88;5.55;;;;;;;4.74;100.00;101180.09;5055818;28;20064;-78
2023/01/14 03:56:05;;;;;;;29.08;5.35;;;;;;;4.69;100.00;101173.81;5052498;28;20044;-73
2023/01/14 03:59:19;;;;;;;29.63;5.53;;;;;;;4.82;100.00;101169.84;5052021;28;20072;-74
2023/01/14 04:01:49;;;;;;;27.70;5.35;;;;;;;4.75;100.00;101167.88;4973143;28;20215;-78
2023/01/14 04:04:15;;;;;;;26.83;5.50;;;;;;;4.70;100.00;101167.72;4974601;28;20114;-73
2023/01/14 04:06:40;;;;;;;29.52;5.60;;;;;;;4.74;100.00;101161.75;5019982;28;20383;-74
2023/01/14 04:09:08;;;;;;;27.25;5.75;;;;;;;4.69;100.00;101152.88;5055531;28;20108;-73
2023/01/14 04:11:33;;;;;;;29.85;5.68;;;;;;;4.72;100.00;101146.00;5055203;28;20049;-73
2023/01/14 04:16:43;;;;;;;32.53;6.15;;;;;;;4.58;100.00;101123.69;5053878;28;20103;-73
2023/01/14 04:19:08;;;;;;;31.30;5.60;;;;;;;4.56;100.00;101129.72;5054977;28;20036;-73
2023/01/14 04:21:33;;;;;;;30.75;5.93;;;;;;;4.54;100.00;101122.72;5055004;28;20100;-73
2023/01/14 04:23:59;;;;;;;28.48;5.65;;;;;;;4.52;100.00;101119.13;5055202;28;20099;-84
2023/01/14 04:26:24;;;;;;;29.48;5.60;;;;;;;4.54;100.00;101112.25;5054821;28;20071;-73
2023/01/14 04:28:49;;;;;;;28.77;5.60;;;;;;;4.45;100.00;101117.16;5054882;28;20053;-74
2023/01/14 04:31:15;;;;;;;30.00;5.78;;;;;;;4.45;100.00;101106.69;5055108;28;20053;-84
2023/01/14 04:33:40;;;;;;;32.50;6.18;;;;;;;4.42;100.00;101088.25;5036583;28;20033;-83
2023/01/14 04:36:07;;;;;;;31.13;5.47;;;;;;;4.45;100.00;101090.09;5054733;28;20060;-85
2023/01/14 04:38:32;;;;;;;29.45;5.20;;;;;;;4.39;100.00;101096.00;5037067;28;20029;-83
2023/01/14 04:40:57;;;;;;;27.52;5.55;;;;;;;4.33;100.00;101099.31;5054650;28;20047;-75
2023/01/14 04:43:23;;;;;;;29.80;5.57;;;;;;;4.32;100.00;101091.41;5054763;28;20480;-73
2023/01/14 04:45:54;;;;;;;27.58;5.82;;;;;;;4.25;100.00;101089.41;5054738;28;20021;-80
2023/01/14 04:48:20;;;;;;;31.10;5.80;;;;;;;4.27;100.00;101095.59;5036845;28;20025;-86
2023/01/14 04:50:47;;;;;;;31.00;5.80;;;;;;;4.26;100.00;101093.81;5054689;28;20041;-82
2023/01/14 04:53:15;;;;;;;29.50;5.70;;;;;;;4.26;100.00;101088.59;5054646;28;20033;-82
2023/01/14 04:55:43;;;;;;;30.88;6.05;;;;;;;4.25;100.00;101081.56;5054379;28;20100;-83
2023/01/14 04:58:11;;;;;;;27.90;5.53;;;;;;;4.27;100.00;101082.53;5036918;28;20476;-85
2023/01/14 05:00:37;;;;;;;27.92;5.68;;;;;;;4.24;100.00;101075.44;5054456;28;20032;-73
2023/01/14 05:03:04;;;;;;;29.20;5.70;;;;;;;4.27;100.00;101074.66;5054338;28;20086;-73
2023/01/14 05:05:30;;;;;;;32.25;6.10;;;;;;;4.32;100.00;101065.22;5053893;28;20056;-73
2023/01/14 05:07:56;;;;;;;29.77;5.75;;;;;;;4.34;100.00;101066.19;5049783;28;20515;-73
2023/01/14 05:10:22;;;;;;;27.77;5.63;;;;;;;4.34;100.00;101056.59;5054135;28;20033;-73
2023/01/14 05:12:56;;;;;;;28.15;5.90;;;;;;;4.32;100.00;101054.75;5054075;28;20112;-73
2023/01/14 05:15:34;;;;;;;26.67;5.55;;;;;;;4.38;100.00;101057.56;5054468;28;20090;-73
2023/01/14 05:18:00;;;;;;;26.20;5.28;;;;;;;4.41;100.00;101043.69;5050726;28;20036;-78
2023/01/14 05:20:26;;;;;;;25.90;5.57;;;;;;;4.40;100.00;101048.06;5053821;28;20037;-73
2023/01/14 05:22:57;;;;;;;26.30;5.05;;;;;;;4.51;100.00;101022.22;5053855;28;20025;-73
2023/01/14 05:25:22;;;;;;;25.52;4.93;;;;;;;4.51;100.00;101027.44;5053989;28;20036;-73
2023/01/14 05:27:48;;;;;;;26.33;5.30;;;;;;;4.52;100.00;101027.50;5053653;28;20025;-73
2023/01/14 05:30:13;;;;;;;28.95;5.65;;;;;;;4.49;100.00;101013.44;5053745;28;20017;-75
2023/01/14 05:32:39;;;;;;;26.05;5.10;;;;;;;4.54;100.00;101002.28;5053836;28;20056;-73
2023/01/14 05:35:05;;;;;;;28.05;5.10;;;;;;;4.54;100.00;100990.88;5035693;28;20027;-74
2023/01/14 05:37:32;;;;;;;26.17;4.90;;;;;;;4.58;100.00;100981.41;5035886;28;20032;-75
2023/01/14 05:39:57;;;;;;;28.70;5.07;;;;;;;4.59;100.00;100983.16;5032044;28;20106;-73
2023/01/14 05:47:53;;;;;;;24.50;4.60;;;;;;;4.60;100.00;100959.69;5053673;28;20035;-84
2023/01/14 05:50:18;;;;;;;27.10;4.95;;;;;;;4.67;100.00;100955.50;5053338;28;20391;-73
2023/01/14 05:52:43;;;;;;;27.17;4.80;;;;;;;4.77;100.00;100947.06;5053490;28;20029;-85
2023/01/14 05:55:09;;;;;;;28.40;5.53;;;;;;;4.77;100.00;100941.84;5053221;28;20032;-77
2023/01/14 05:57:34;;;;;;;26.70;4.70;;;;;;;4.81;100.00;100938.47;5053662;28;20029;-74
2023/01/14 05:59:59;;;;;;;26.35;4.80;;;;;;;4.82;100.00;100928.88;5053368;28;20044;-85
2023/01/14 06:07:55;;;;;;;25.30;4.80;;;;;;;4.90;100.00;100924.75;5052994;28;20052;-74
2023/01/14 06:10:24;;;;;;;25.80;4.85;;;;;;;4.93;100.00;100910.84;5053185;28;20025;-84
2023/01/14 06:13:02;;;;;;;24.52;4.15;;;;;;;4.94;100.00;100910.03;5035775;28;20174;-76
2023/01/14 06:15:34;;;;;;;25.73;4.82;;;;;;;4.81;100.00;100896.56;5048944;28;20114;-83
2023/01/14 06:18:13;;;;;;;26.48;4.57;;;;;;;4.79;100.00;100894.72;5048939;28;20527;-85
2023/01/14 06:20:39;;;;;;;28.40;5.00;;;;;;;4.78;100.00;100886.00;5050381;28;20025;-84
2023/01/14 06:23:05;;;;;;;26.48;4.57;;;;;;;4.74;100.00;100884.13;5053424;28;20032;-81
2023/01/14 06:25:32;;;;;;;26.77;5.18;;;;;;;4.69;100.00;100870.03;5052813;28;20033;-85
2023/01/14 06:28:00;;;;;;;25.85;4.85;;;;;;;4.56;100.00;100862.63;5048834;28;20037;-77
2023/01/14 06:30:26;;;;;;;27.48;5.10;;;;;;;4.50;100.00;100861.63;5052843;28;20056;-81
2023/01/14 06:32:51;;;;;;;23.73;4.70;;;;;;;4.53;100.00;100853.84;5052660;28;20060;-85
2023/01/14 06:35:16;;;;;;;27.25;5.30;;;;;;;4.54;100.00;100845.16;5052885;28;20033;-84
2023/01/14 06:37:45;;;;;;;26.73;4.70;;;;;;;4.62;100.00;100834.91;5052493;28;20027;-84
2023/01/14 06:40:12;;;;;;;27.35;4.80;;;;;;;4.58;100.00;100834.78;5052499;28;20082;-74
2023/01/14 06:42:40;;;;;;;24.05;4.72;;;;;;;4.59;100.00;100833.91;5052614;28;20035;-73
2023/01/14 06:45:09;;;;;;;26.75;4.68;;;;;;;4.57;100.00;100827.75;5052620;28;20029;-73
2023/01/14 06:47:34;;;;;;;29.50;5.07;;;;;;;4.55;100.00;100825.09;5052393;28;20028;-73
2023/01/14 06:49:59;;;;;;;25.33;4.80;;;;;;;4.67;100.00;100814.09;5052417;28;20043;-73
2023/01/14 06:52:25;;;;;;;26.60;4.72;;;;;;;4.64;100.00;100814.88;5052559;28;20068;-73
2023/01/14 06:54:52;;;;;;;28.95;5.30;;;;;;;4.64;100.00;100796.53;5052274;28;20025;-73
2023/01/14 06:57:18;;;;;;;29.27;5.65;;;;;;;4.65;100.00;100811.41;5052481;28;20405;-73
2023/01/14 06:59:43;;;;;;;27.75;5.18;;;;;;;4.64;100.00;100799.16;5052356;28;20120;-73
2023/01/14 07:02:12;;;;;;;26.67;4.72;;;;;;;4.65;100.00;100790.47;5034342;28;20065;-73
2023/01/14 07:04:38;;;;;;;26.73;5.00;;;;;;;4.64;100.00;100788.69;5034345;28;20025;-73
2023/01/14 07:07:04;;;;;;;30.42;5.50;;;;;;;4.63;100.00;100779.09;5052107;28;20488;-73
2023/01/14 07:09:29;;;;;;;25.88;4.75;;;;;;;4.72;100.00;100761.00;5049092;28;20079;-77
2023/01/14 07:11:54;;;;;;;30.58;5.47;;;;;;;4.70;100.00;100756.53;5051733;28;20506;-80
2023/01/14 07:14:20;;;;;;;28.45;5.10;;;;;;;4.67;100.00;100746.88;5033609;28;20025;-80
2023/01/14 07:16:45;;;;;;;26.85;5.60;;;;;;;4.63;100.00;100733.66;5053542;28;20032;-83
2023/01/14 07:19:11;;;;;;;28.00;5.72;;;;;;;4.68;100.00;100721.59;5052276;28;20045;-81
2023/01/14 07:21:37;;;;;;;27.40;5.28;;;;;;;4.64;100.00;100725.84;5051421;28;20021;-78
2023/01/14 07:24:03;;;;;;;27.38;5.72;;;;;;;4.68;100.00;100716.34;5036210;28;20029;-77
2023/01/14 07:26:29;;;;;;;28.17;6.03;;;;;;;4.69;100.00;100724.25;5033347;28;20151;-78
2023/01/14 07:28:54;;;;;;;23.40;5.53;;;;;;;4.75;100.00;100715.66;5034570;28;20232;-79
2023/01/14 07:31:20;;;;;;;26.90;5.65;;;;;;;4.74;100.00;100711.28;5054993;28;20096;-80
2023/01/14 07:33:45;;;;;;;26.67;5.57;;;;;;;4.80;100.00;100711.41;5056769;28;20388;-82
2023/01/14 07:36:11;;;;;;;29.85;6.13;;;;;;;4.80;100.00;100711.41;5032951;28;20032;-80
2023/01/14 07:38:36;;;;;;;25.73;5.75;;;;;;;4.80;100.00;100695.69;5054086;28;20040;-79
2023/01/14 07:41:01;;;;;;;24.20;5.30;;;;;;;4.84;100.00;100688.81;5031662;28;20080;-80
2023/01/14 07:43:27;;;;;;;26.13;6.03;;;;;;;4.81;100.00;100676.53;5053183;28;20048;-81
2023/01/14 07:45:58;;;;;;;23.15;5.38;;;;;;;4.87;100.00;100666.19;5051359;28;20040;-80
2023/01/14 07:48:23;;;;;;;24.05;5.53;;;;;;;4.85;100.00;100661.78;5056059;28;20043;-75
2023/01/14 07:50:49;;;;;;;25.05;5.88;;;;;;;4.86;100.00;100648.72;5055513;28;20033;-85
2023/01/14 07:53:14;;;;;;;25.38;6.28;;;;;;;4.91;100.00;100635.75;5050005;28;20068;-75
2023/01/14 07:55:39;;;;;;;23.75;6.00;;;;;;;4.93;100.00;100641.88;5054010;28;20087;-75
2023/01/14 07:58:05;;;;;;;23.85;6.03;;;;;;;4.95;100.00;100629.72;5051170;28;20045;-75
2023/01/14 08:00:30;;;;;;;21.33;6.10;;;;;;;4.97;100.00;100621.91;5056077;28;20079;-85
2023/01/14 08:02:56;;;;;;;25.75;6.80;;;;;;;4.97;100.00;100603.56;5054735;28;20115;-81
2023/01/14 08:05:21;;;;;;;23.13;5.68;;;;;;;5.00;100.00;100601.00;5033889;28;20110;-85
2023/01/14 08:07:47;;;;;;;22.25;5.60;;;;;;;5.06;100.00;100577.56;5051449;28;20349;-87
2023/01/14 08:10:12;;;;;;;23.30;5.97;;;;;;;5.09;100.00;100585.50;5059653;28;20500;-79
2023/01/14 08:12:38;;;;;;;23.48;6.25;;;;;;;5.12;100.00;100588.19;5054892;28;20372;-85
2023/01/14 08:15:06;;;;;;;24.73;6.10;;;;;;;5.10;100.00;100562.78;5060110;28;20025;-84
2023/01/14 08:17:31;;;;;;;22.63;5.68;;;;;;;5.12;100.00;100550.63;5052891;28;20111;-85
2023/01/14 08:19:57;;;;;;;23.00;5.60;;;;;;;5.15;100.00;100555.91;5054435;28;20172;-78
2023/01/14 08:22:22;;;;;;;24.05;5.88;;;;;;;5.17;100.00;100551.59;5055164;28;20037;-86
2023/01/14 08:24:48;;;;;;;22.30;5.50;;;;;;;5.16;100.00;100529.75;5054868;28;20421;-77
2023/01/14 08:27:13;;;;;;;22.25;5.15;;;;;;;5.26;100.00;100536.06;5051053;28;20028;-85
2023/01/14 08:29:39;;;;;;;22.42;5.43;;;;;;;5.22;100.00;100535.09;5055143;28;20025;-74
2023/01/14 08:32:04;;;;;;;20.98;5.40;;;;;;;5.26;100.00;100511.59;5054855;28;20060;-80
2023/01/14 08:34:30;;;;;;;22.63;5.55;;;;;;;5.24;100.00;100501.06;5054805;28;20357;-74
2023/01/14 08:36:55;;;;;;;20.25;5.10;;;;;;;5.31;100.00;100504.72;5054936;28;20123;-86
2023/01/14 08:39:20;;;;;;;20.52;5.38;;;;;;;5.32;100.00;100488.16;5054821;28;20021;-74
2023/01/14 08:41:46;;;;;;;20.08;4.80;;;;;;;5.35;100.00;100485.56;5054886;28;20057;-74
2023/01/14 08:44:11;;;;;;;22.08;5.15;;;;;;;5.38;100.00;100472.53;5054658;28;20029;-73
2023/01/14 08:46:38;;;;;;;18.67;4.72;;;;;;;5.38;100.00;100465.53;5054480;28;20036;-73
2023/01/14 08:49:03;;;;;;;18.77;4.35;;;;;;;5.44;100.00;100467.41;5054783;28;20480;-74
2023/01/14 08:51:30;;;;;;;17.35;4.55;;;;;;;5.44;100.00;100453.41;5054612;28;20039;-73
2023/01/14 08:53:56;;;;;;;21.00;4.63;;;;;;;5.50;100.00;100451.78;5054415;28;20446;-73
2023/01/14 08:56:22;;;;;;;16.83;4.15;;;;;;;5.54;100.00;100439.63;5054887;28;20052;-74
2023/01/14 08:58:47;;;;;;;20.63;4.90;;;;;;;5.49;100.00;100426.44;5054334;28;20416;-74
2023/01/14 09:01:13;;;;;;;18.75;4.90;;;;;;;5.50;100.00;100412.44;5054633;28;20111;-78
2023/01/14 09:03:40;;;;;;;19.63;5.00;;;;;;;5.53;100.00;100412.53;5036757;28;20472;-85
2023/01/14 09:06:09;;;;;;;16.70;4.30;;;;;;;5.60;100.00;100405.63;5054229;28;20037;-86
2023/01/14 09:17:07;;;;;;;17.95;4.30;;;;;;;5.69;100.00;100384.81;5052194;28;19924;-81
2023/01/14 09:19:49;;;;;;;18.60;4.55;;;;;;;5.70;100.00;100380.47;5053088;28;20033;-85
2023/01/14 09:22:20;;;;;;;18.48;4.53;;;;;;;5.75;100.00;100366.56;5050036;28;20024;-85
2023/01/14 09:24:46;;;;;;;21.75;4.50;;;;;;;5.72;100.00;100376.09;5050588;28;20404;-78
2023/01/14 09:27:12;;;;;;;18.30;5.43;;;;;;;5.73;100.00;100362.16;5053911;28;20050;-86
2023/01/14 09:29:37;;;;;;;20.52;4.90;;;;;;;5.75;100.00;100357.78;5054000;28;20027;-87
2023/01/14 09:32:06;;;;;;;19.70;4.63;;;;;;;5.82;100.00;100341.28;5054006;28;20104;-80
2023/01/14 09:34:31;;;;;;;19.27;4.57;;;;;;;5.84;100.00;100342.22;5053676;28;20352;-86
2023/01/14 09:36:57;;;;;;;19.70;4.60;;;;;;;5.88;100.00;100327.41;5053573;28;20025;-87
2023/01/14 09:39:22;;;;;;;21.00;5.03;;;;;;;5.87;100.00;100329.16;5053689;28;20029;-81
2023/01/14 09:41:54;;;;;;;17.98;4.60;;;;;;;5.92;100.00;100324.84;5053590;28;20507;-87
2023/01/14 09:44:21;;;;;;;22.63;4.68;;;;;;;5.97;100.00;100314.47;5050237;28;20083;-74
2023/01/14 09:46:47;;;;;;;21.17;4.90;;;;;;;5.96;100.00;100296.91;5053662;28;20079;-86
2023/01/14 09:49:17;;;;;;;18.23;4.15;;;;;;;6.01;100.00;100311.00;5053665;28;20464;-79
2023/01/14 09:51:51;;;;;;;20.48;4.53;;;;;;;6.01;100.00;100294.38;5051810;28;20112;-76
2023/01/14 09:54:43;;;;;;;17.70;4.50;;;;;;;6.03;100.00;100290.94;5053105;28;20024;-82
2023/01/14 09:57:33;;;;;;;21.38;4.80;;;;;;;6.09;100.00;100293.63;5032547;28;20455;-86
2023/01/14 10:00:10;;;;;;;21.35;4.90;;;;;;;6.10;100.00;100279.66;5048860;28;20189;-76
2023/01/14 10:02:47;;;;;;;21.52;5.00;;;;;;;6.13;100.00;100278.84;5050705;28;20027;-75
2023/01/14 10:05:29;;;;;;;19.67;5.05;;;;;;;6.17;100.00;100270.13;5053335;28;20037;-74
2023/01/14 10:08:01;;;;;;;19.73;4.35;;;;;;;6.19;100.00;100242.16;5053583;28;20442;-85
2023/01/14 10:10:31;;;;;;;20.40;5.00;;;;;;;6.24;100.00;100245.72;5049348;28;20025;-87
2023/01/14 10:12:59;;;;;;;20.88;5.05;;;;;;;6.26;100.00;100244.00;5049053;28;20076;-86
2023/01/14 10:15:50;;;;;;;17.17;4.20;;;;;;;6.30;100.00;100217.78;5052912;28;20029;-76
2023/01/14 10:18:37;;;;;;;21.05;5.07;;;;;;;6.37;100.00;100219.63;5020639;28;20036;-87
2023/01/14 10:21:10;;;;;;;22.20;5.13;;;;;;;6.41;100.00;100197.78;5049790;28;20117;-75
2023/01/14 10:23:40;;;;;;;18.73;4.57;;;;;;;6.47;100.00;100195.22;5035096;28;20037;-78
2023/01/14 10:26:18;;;;;;;21.90;4.97;;;;;;;6.55;100.00;100195.28;5052887;28;20036;-85
2023/01/14 10:28:45;;;;;;;20.73;4.85;;;;;;;6.56;100.00;100181.31;5052974;28;20461;-78
2023/01/14 10:31:32;;;;;;;19.90;4.97;;;;;;;6.56;100.00;100162.94;5052313;28;20067;-75
2023/01/14 10:33:58;;;;;;;18.63;4.55;;;;;;;6.63;100.00;100168.25;5048697;28;20025;-74
2023/01/14 10:36:29;;;;;;;21.92;5.40;;;;;;;6.63;100.00;100165.63;5052741;28;20537;-79
2023/01/14 10:38:55;;;;;;;20.23;4.70;;;;;;;6.69;100.00;100172.69;5035525;28;20037;-74
2023/01/14 10:41:48;;;;;;;18.50;4.70;;;;;;;6.70;100.00;100137.69;5052565;28;20392;-74
2023/01/14 10:44:14;;;;;;;19.50;5.00;;;;;;;6.76;100.00;100145.59;5049647;28;20112;-75
2023/01/14 10:46:42;;;;;;;19.88;4.82;;;;;;;6.77;100.00;100130.72;5052496;28;20075;-74
2023/01/14 10:49:32;;;;;;;19.38;4.35;;;;;;;6.80;100.00;100122.84;5052649;28;20036;-75
2023/01/14 10:51:58;;;;;;;19.52;4.15;;;;;;;6.83;100.00;100112.41;5048806;28;20472;-74
2023/01/14 10:54:24;;;;;;;18.30;4.35;;;;;;;6.90;100.00;100092.28;5052432;28;20087;-74
2023/01/14 10:57:12;;;;;;;19.10;4.20;;;;;;;6.88;100.00;100105.41;5052362;28;20057;-74
2023/01/14 10:59:42;;;;;;;14.75;4.10;;;;;;;6.94;100.00;100083.56;5031914;28;20472;-74
2023/01/14 11:02:21;;;;;;;14.70;3.78;;;;;;;6.98;100.00;100077.47;5052780;28;20422;-74
2023/01/14 11:04:47;;;;;;;16.45;4.00;;;;;;;7.01;100.00;100063.47;5052454;28;20028;-75
2023/01/14 11:07:22;;;;;;;15.45;3.78;;;;;;;7.12;100.00;100075.81;5052310;28;20040;-77
2023/01/14 11:09:48;;;;;;;15.48;3.53;;;;;;;7.13;100.00;100060.91;5052080;28;20115;-75
2023/01/14 11:12:32;;;;;;;16.23;3.97;;;;;;;7.17;100.00;100044.28;5052387;28;20421;-80
2023/01/14 11:14:59;;;;;;;16.00;3.85;;;;;;;7.14;100.00;100033.75;5048777;28;20026;-86
2023/01/14 11:17:27;;;;;;;17.55;4.25;;;;;;;7.12;100.00;100028.50;5052470;28;20057;-75
2023/01/14 11:20:21;;;;;;;15.18;3.35;;;;;;;7.24;100.00;100037.31;5052120;28;20021;-75
2023/01/14 11:22:55;;;;;;;14.80;3.55;;;;;;;7.19;100.00;100016.25;5050755;28;20086;-88
2023/01/14 11:25:22;;;;;;;11.98;3.20;;;;;;;7.24;100.00;100021.53;5052379;28;20107;-84
2023/01/14 11:27:50;;;;;;;11.70;3.10;;;;;;;7.25;100.00;100018.94;5052398;28;20536;-87
2023/01/14 11:30:21;;;;;;;12.93;3.28;;;;;;;7.26;100.00;100001.38;5052232;28;20060;-85
2023/01/14 11:32:49;;;;;;;12.13;3.28;;;;;;;7.28;100.00;100018.94;5052002;28;20021;-74
2023/01/14 11:35:29;;;;;;;9.70;3.05;;;;;;;7.38;100.00;100003.19;5051980;28;20523;-87
2023/01/14 11:37:55;;;;;;;11.23;3.10;;;;;;;7.32;100.00;99981.28;5048719;28;20112;-74
2023/01/14 11:40:22;;;;;;;12.80;3.10;;;;;;;7.33;100.00;99967.22;5048532;28;20033;-87
2023/01/14 11:42:48;;;;;;;12.20;3.25;;;;;;;7.33;100.00;100001.41;5052035;28;20082;-75
2023/01/14 11:45:13;;;;;;;10.90;2.83;;;;;;;7.32;100.00;99962.88;5055971;28;20029;-74
2023/01/14 11:47:46;;;;;;;10.45;3.25;;;;;;;7.37;100.00;99975.13;5055725;28;20387;-86
2023/01/14 11:50:16;;;;;;;9.63;2.83;;;;;;;7.39;100.00;99963.75;5055745;28;20029;-87
2023/01/14 11:52:58;;;;;;;11.40;3.30;;;;;;;7.39;100.00;99962.88;5055715;28;20036;-86
2023/01/14 11:55:26;;;;;;;8.73;2.90;;;;;;;7.41;100.00;99961.13;5052205;28;20480;-86